createdAt,value
2017-05-16T00:00:56.239Z,60.54
2017-05-16T00:01:57.669Z,61.88
2017-05-16T00:02:59.098Z,61.98
2017-05-16T00:04:00.526Z,62.55
2017-05-16T00:05:01.959Z,60.73
2017-05-16T00:06:03.388Z,58.72
2017-05-16T00:07:04.811Z,60.54
2017-05-16T00:08:06.241Z,60.73
2017-05-16T00:09:07.668Z,62.74
2017-05-16T00:10:09.097Z,62.07
2017-05-16T00:11:10.536Z,61.98
2017-05-16T00:12:11.971Z,64.28
2017-05-16T00:13:13.401Z,63.99
2017-05-16T00:14:14.829Z,63.99
2017-05-16T00:15:16.257Z,64.47
2017-05-16T00:16:17.682Z,62.74
2017-05-16T00:17:19.111Z,63.70
2017-05-16T00:18:20.541Z,64.95
2017-05-16T00:19:21.974Z,62.74
2017-05-16T00:20:23.399Z,61.60
2017-05-16T00:21:24.835Z,61.98
2017-05-16T00:22:26.269Z,61.31
2017-05-16T00:23:27.698Z,60.44
2017-05-16T00:24:29.128Z,60.06
2017-05-16T00:25:30.556Z,64.28
2017-05-16T00:26:31.992Z,64.37
2017-05-16T00:27:33.421Z,63.60
2017-05-16T00:28:34.854Z,65.14
2017-05-16T00:29:36.279Z,65.26
2017-05-16T00:30:37.710Z,65.75
2017-05-16T00:31:39.138Z,66.03
2017-05-16T00:32:40.561Z,66.96
2017-05-16T00:33:41.993Z,64.76
2017-05-16T00:34:43.428Z,65.33
2017-05-16T00:35:44.859Z,63.22
2017-05-16T00:36:46.284Z,63.22
2017-05-16T00:37:47.719Z,63.32
2017-05-16T00:38:49.143Z,60.25
2017-05-16T00:39:50.582Z,62.84
2017-05-16T00:40:52.020Z,64.56
2017-05-16T00:41:53.469Z,63.13
2017-05-16T00:42:54.907Z,63.03
2017-05-16T00:43:56.336Z,64.56
2017-05-16T00:44:57.771Z,66.93
2017-05-16T00:45:59.204Z,68.27
2017-05-16T00:47:00.638Z,66.54
2017-05-16T00:48:02.066Z,65.30
2017-05-16T00:49:03.492Z,65.39
2017-05-16T00:50:04.960Z,63.80
2017-05-16T00:51:06.385Z,62.17
2017-05-16T00:52:07.815Z,63.03
2017-05-16T00:53:09.251Z,64.72
2017-05-16T00:54:10.768Z,67.50
2017-05-16T00:55:12.193Z,68.36
2017-05-16T00:56:13.635Z,68.55
2017-05-16T00:57:15.065Z,67.88
2017-05-16T00:58:16.497Z,67.31
2017-05-16T00:59:17.926Z,68.27
2017-05-16T01:00:19.364Z,67.21
2017-05-16T01:01:20.790Z,68.17
2017-05-16T01:02:22.219Z,66.93
2017-05-16T01:03:23.649Z,70.09
2017-05-16T01:04:25.086Z,69.51
2017-05-16T01:05:26.623Z,69.03
2017-05-16T01:06:28.054Z,68.27
2017-05-16T01:07:29.478Z,65.01
2017-05-16T01:08:30.961Z,65.88
2017-05-16T01:09:32.397Z,63.48
2017-05-16T01:10:33.835Z,63.39
2017-05-16T01:11:35.267Z,63.57
2017-05-16T01:12:36.694Z,62.52
2017-05-16T01:13:39.024Z,63.76
2017-05-16T01:14:40.456Z,63.10
2017-05-16T01:15:41.883Z,63.39
2017-05-16T01:16:44.233Z,62.43
2017-05-16T01:17:45.662Z,61.88
2017-05-16T01:18:47.581Z,62.07
2017-05-16T01:19:49.009Z,60.25
2017-05-16T01:20:50.437Z,61.50
2017-05-16T01:21:51.860Z,63.03
2017-05-16T01:22:53.994Z,61.69
2017-05-16T01:23:55.428Z,63.96
2017-05-16T01:24:56.864Z,63.67
2017-05-16T01:25:58.291Z,63.86
2017-05-16T01:26:59.731Z,63.57
2017-05-16T01:28:01.166Z,62.71
2017-05-16T01:29:02.586Z,60.06
2017-05-16T01:30:04.015Z,59.30
2017-05-16T01:31:05.446Z,59.39
2017-05-16T01:32:06.882Z,57.57
2017-05-16T01:33:08.312Z,60.35
2017-05-16T01:34:09.742Z,58.62
2017-05-16T01:35:11.172Z,59.58
2017-05-16T01:36:12.594Z,58.72
2017-05-16T01:37:14.025Z,57.70
2017-05-16T01:38:15.456Z,59.11
2017-05-16T01:39:16.884Z,58.15
2017-05-16T01:40:18.314Z,58.53
2017-05-16T01:41:19.742Z,60.06
2017-05-16T01:42:21.172Z,62.07
2017-05-16T01:43:22.621Z,60.54
2017-05-16T01:44:24.028Z,60.16
2017-05-16T01:45:25.464Z,60.44
2017-05-16T01:46:26.888Z,60.35
2017-05-16T01:47:28.316Z,59.97
2017-05-16T01:48:29.745Z,57.48
2017-05-16T01:49:31.175Z,59.13
2017-05-16T01:50:32.604Z,59.01
2017-05-16T01:51:34.034Z,58.37
2017-05-16T01:52:35.462Z,57.98
2017-05-16T01:53:36.888Z,59.58
2017-05-16T01:54:38.315Z,59.01
2017-05-16T01:55:39.750Z,60.44
2017-05-16T01:56:41.179Z,61.98
2017-05-16T01:57:42.609Z,62.36
2017-05-16T01:58:44.040Z,62.81
2017-05-16T01:59:45.473Z,60.61
2017-05-16T02:00:47.373Z,58.15
2017-05-16T02:01:48.266Z,58.44
2017-05-16T02:02:49.699Z,58.72
2017-05-16T02:03:51.140Z,62.26
2017-05-16T02:04:52.570Z,62.36
2017-05-16T02:05:54.001Z,60.35
2017-05-16T02:06:55.422Z,59.01
2017-05-16T02:07:56.903Z,59.39
2017-05-16T02:08:58.280Z,59.01
2017-05-16T02:09:59.715Z,59.20
2017-05-16T02:11:01.147Z,61.11
2017-05-16T02:12:02.572Z,60.25
2017-05-16T02:13:04.000Z,61.60
2017-05-16T02:14:05.450Z,60.73
2017-05-16T02:15:07.787Z,60.54
2017-05-16T02:16:09.216Z,60.83
2017-05-16T02:17:10.650Z,61.11
2017-05-16T02:18:12.080Z,61.60
2017-05-16T02:19:13.507Z,60.03
2017-05-16T02:20:14.935Z,62.90
2017-05-16T02:21:16.364Z,60.99
2017-05-16T02:22:17.788Z,62.43
2017-05-16T02:23:19.219Z,61.21
2017-05-16T02:24:20.663Z,61.31
2017-05-16T02:25:22.091Z,61.02
2017-05-16T02:26:23.510Z,60.06
2017-05-16T02:27:24.934Z,59.11
2017-05-16T02:28:26.377Z,60.54
2017-05-16T02:29:27.810Z,61.50
2017-05-16T02:30:29.253Z,59.97
2017-05-16T02:31:30.680Z,60.99
2017-05-16T02:32:32.114Z,60.25
2017-05-16T02:33:33.544Z,59.77
2017-05-16T02:34:34.981Z,61.02
2017-05-16T02:35:36.405Z,60.06
2017-05-16T02:36:37.830Z,60.06
2017-05-16T02:37:39.261Z,60.64
2017-05-16T02:38:40.691Z,61.11
2017-05-16T02:39:42.129Z,60.16
2017-05-16T02:40:43.572Z,62.36
2017-05-16T02:41:44.999Z,62.17
2017-05-16T02:42:46.421Z,63.03
2017-05-16T02:43:47.853Z,60.93
2017-05-16T02:44:49.280Z,61.50
2017-05-16T02:45:50.726Z,61.60
2017-05-16T02:46:52.160Z,61.98
2017-05-16T02:47:53.598Z,61.98
2017-05-16T02:48:55.031Z,62.17
2017-05-16T02:49:56.468Z,61.02
2017-05-16T02:50:57.891Z,62.84
2017-05-16T02:51:59.319Z,63.51
2017-05-16T02:53:00.754Z,63.89
2017-05-16T02:54:02.208Z,63.13
2017-05-16T02:55:03.619Z,61.98
2017-05-16T02:56:05.053Z,61.02
2017-05-16T02:57:06.481Z,61.79
2017-05-16T02:58:07.914Z,63.22
2017-05-16T02:59:09.341Z,63.70
2017-05-16T03:00:10.778Z,64.37
2017-05-16T03:01:12.206Z,63.32
2017-05-16T03:02:13.638Z,63.03
2017-05-16T03:03:15.073Z,64.37
2017-05-16T03:04:16.501Z,64.85
2017-05-16T03:05:17.944Z,61.82
2017-05-16T03:06:19.373Z,64.40
2017-05-16T03:07:20.801Z,63.03
2017-05-16T03:08:22.239Z,61.79
2017-05-16T03:09:23.670Z,61.15
2017-05-16T03:10:25.084Z,58.56
2017-05-16T03:11:26.514Z,58.75
2017-05-16T03:12:27.940Z,60.09
2017-05-16T03:13:29.368Z,64.02
2017-05-16T03:14:30.803Z,63.80
2017-05-16T03:15:32.233Z,63.42
2017-05-16T03:16:34.230Z,63.35
2017-05-16T03:17:35.658Z,64.56
2017-05-16T03:18:37.094Z,62.65
2017-05-16T03:19:38.513Z,63.89
2017-05-16T03:20:39.952Z,63.80
2017-05-16T03:21:41.383Z,63.70
2017-05-16T03:22:42.811Z,64.37
2017-05-16T03:23:44.246Z,64.47
2017-05-16T03:24:45.672Z,61.60
2017-05-16T03:25:47.099Z,63.51
2017-05-16T03:26:48.524Z,63.70
2017-05-16T03:27:49.948Z,63.51
2017-05-16T03:28:51.384Z,61.88
2017-05-16T03:29:52.810Z,63.03
2017-05-16T03:30:54.245Z,62.84
2017-05-16T03:31:55.669Z,63.13
2017-05-16T03:32:57.117Z,62.55
2017-05-16T03:33:58.568Z,61.79
2017-05-16T03:34:59.993Z,62.46
2017-05-16T03:36:01.423Z,62.07
2017-05-16T03:37:02.873Z,62.46
2017-05-16T03:38:04.306Z,62.20
2017-05-16T03:39:05.723Z,60.73
2017-05-16T03:40:07.177Z,60.47
2017-05-16T03:41:08.617Z,61.05
2017-05-16T03:42:10.048Z,59.90
2017-05-16T03:43:11.476Z,58.75
2017-05-16T03:44:12.917Z,58.56
2017-05-16T03:45:14.349Z,58.94
2017-05-16T03:46:15.781Z,58.46
2017-05-16T03:47:17.213Z,59.23
2017-05-16T03:48:18.638Z,59.55
2017-05-16T03:49:20.069Z,59.71
2017-05-16T03:50:21.508Z,58.59
2017-05-16T03:51:22.936Z,58.97
2017-05-16T03:52:24.361Z,57.98
2017-05-16T03:53:26.620Z,60.28
2017-05-16T03:54:28.055Z,59.90
2017-05-16T03:55:29.485Z,60.03
2017-05-16T03:56:30.946Z,59.06
2017-05-16T03:57:32.374Z,59.16
2017-05-16T03:58:33.806Z,59.26
2017-05-16T03:59:35.242Z,60.00
2017-05-16T04:00:36.674Z,58.56
2017-05-16T04:01:38.103Z,60.03
2017-05-16T04:02:39.537Z,58.49
2017-05-16T04:03:40.970Z,59.36
2017-05-16T04:04:42.392Z,59.06
2017-05-16T04:05:43.822Z,59.26
2017-05-16T04:06:45.251Z,59.74
2017-05-16T04:07:46.791Z,59.26
2017-05-16T04:08:48.224Z,59.16
2017-05-16T04:09:49.659Z,58.39
2017-05-16T04:10:51.085Z,58.59
2017-05-16T04:11:52.527Z,59.45
2017-05-16T04:12:53.959Z,59.16
2017-05-16T04:13:55.400Z,58.87
2017-05-16T04:14:56.844Z,58.11
2017-05-16T04:15:58.274Z,58.59
2017-05-16T04:16:59.708Z,57.82
2017-05-16T04:18:01.139Z,58.59
2017-05-16T04:19:02.569Z,58.78
2017-05-16T04:20:04.014Z,57.72
2017-05-16T04:21:05.455Z,58.20
2017-05-16T04:22:06.882Z,58.69
2017-05-16T04:23:08.314Z,58.49
2017-05-16T04:24:09.747Z,58.78
2017-05-16T04:25:11.194Z,57.06
2017-05-16T04:26:12.709Z,57.72
2017-05-16T04:27:15.018Z,58.87
2017-05-16T04:28:16.449Z,59.83
2017-05-16T04:29:17.885Z,58.69
2017-05-16T04:30:19.323Z,57.56
2017-05-16T04:31:20.748Z,57.63
2017-05-16T04:32:22.189Z,57.85
2017-05-16T04:33:23.623Z,58.87
2017-05-16T04:34:25.050Z,56.86
2017-05-16T04:35:26.533Z,57.08
2017-05-16T04:36:27.968Z,57.82
2017-05-16T04:37:29.401Z,57.82
2017-05-16T04:38:30.921Z,58.78
2017-05-16T04:39:32.359Z,59.16
2017-05-16T04:40:33.808Z,59.06
2017-05-16T04:41:35.234Z,59.45
2017-05-16T04:42:36.668Z,59.26
2017-05-16T04:43:38.103Z,59.36
2017-05-16T04:44:39.537Z,60.25
2017-05-16T04:45:40.970Z,59.06
2017-05-16T04:46:42.408Z,60.03
2017-05-16T04:47:43.846Z,59.36
2017-05-16T04:48:45.283Z,60.31
2017-05-16T04:49:46.729Z,59.48
2017-05-16T04:50:48.153Z,59.06
2017-05-16T04:51:49.583Z,60.12
2017-05-16T04:52:51.032Z,59.19
2017-05-16T04:53:52.512Z,59.58
2017-05-16T04:54:53.940Z,58.71
2017-05-16T04:55:55.467Z,59.38
2017-05-16T04:56:56.896Z,60.25
2017-05-16T04:57:58.333Z,59.09
2017-05-16T04:58:59.769Z,59.48
2017-05-16T05:00:01.264Z,59.96
2017-05-16T05:01:02.730Z,59.48
2017-05-16T05:02:04.163Z,59.09
2017-05-16T05:03:05.603Z,60.22
2017-05-16T05:04:07.067Z,60.79
2017-05-16T05:05:08.502Z,59.67
2017-05-16T05:06:09.931Z,59.38
2017-05-16T05:07:11.392Z,60.15
2017-05-16T05:08:12.898Z,60.05
2017-05-16T05:09:14.331Z,60.15
2017-05-16T05:10:15.775Z,60.15
2017-05-16T05:11:17.214Z,61.11
2017-05-16T05:12:18.645Z,62.26
2017-05-16T05:13:20.075Z,61.98
2017-05-16T05:14:21.526Z,60.63
2017-05-16T05:15:22.957Z,60.63
2017-05-16T05:16:24.397Z,61.11
2017-05-16T05:17:25.827Z,62.16
2017-05-16T05:18:27.264Z,62.84
2017-05-16T05:19:28.693Z,62.65
2017-05-16T05:20:30.125Z,62.36
2017-05-16T05:21:31.559Z,62.07
2017-05-16T05:22:32.999Z,62.65
2017-05-16T05:23:34.432Z,62.16
2017-05-16T05:24:35.867Z,61.69
2017-05-16T05:25:37.306Z,61.30
2017-05-16T05:26:38.739Z,60.82
2017-05-16T05:27:40.176Z,62.84
2017-05-16T05:28:41.614Z,63.99
2017-05-16T05:29:43.076Z,64.47
2017-05-16T05:30:44.516Z,62.93
2017-05-16T05:31:45.952Z,62.45
2017-05-16T05:32:47.396Z,62.65
2017-05-16T05:33:48.857Z,63.60
2017-05-16T05:34:50.309Z,63.79
2017-05-16T05:35:51.746Z,62.93
2017-05-16T05:36:53.182Z,62.65
2017-05-16T05:37:54.621Z,62.93
2017-05-16T05:38:56.055Z,63.32
2017-05-16T05:39:57.487Z,63.32
2017-05-16T05:40:59.055Z,63.89
2017-05-16T05:42:00.489Z,64.66
2017-05-16T05:43:01.921Z,64.18
2017-05-16T05:44:03.342Z,63.03
2017-05-16T05:45:04.796Z,63.79
2017-05-16T05:46:06.233Z,64.37
2017-05-16T05:47:07.661Z,64.37
2017-05-16T05:48:09.136Z,63.79
2017-05-16T05:49:10.566Z,64.28
2017-05-16T05:50:12.656Z,64.95
2017-05-16T05:51:14.105Z,64.95
2017-05-16T05:52:15.537Z,65.52
2017-05-16T05:53:16.969Z,65.91
2017-05-16T05:54:18.403Z,66.77
2017-05-16T05:55:19.839Z,66.39
2017-05-16T05:56:21.272Z,65.72
2017-05-16T05:57:22.706Z,66.86
2017-05-16T05:58:24.137Z,66.39
2017-05-16T05:59:25.573Z,66.96
2017-05-16T06:00:27.006Z,67.54
2017-05-16T06:01:28.443Z,67.83
2017-05-16T06:02:30.580Z,66.77
2017-05-16T06:03:32.015Z,66.00
2017-05-16T06:04:33.445Z,66.61
2017-05-16T06:05:34.874Z,65.91
2017-05-16T06:06:36.309Z,65.84
2017-05-16T06:07:37.739Z,64.79
2017-05-16T06:08:39.177Z,66.03
2017-05-16T06:09:40.665Z,64.89
2017-05-16T06:10:42.090Z,64.69
2017-05-16T06:11:43.522Z,65.36
2017-05-16T06:12:44.960Z,65.56
2017-05-16T06:13:46.391Z,66.80
2017-05-16T06:14:47.847Z,66.80
2017-05-16T06:15:49.276Z,66.61
2017-05-16T06:16:50.705Z,67.76
2017-05-16T06:17:52.147Z,66.90
2017-05-16T06:18:53.591Z,65.75
2017-05-16T06:19:55.027Z,67.00
2017-05-16T06:20:56.459Z,66.33
2017-05-16T06:21:57.891Z,65.78
2017-05-16T06:22:59.330Z,65.30
2017-05-16T06:24:00.765Z,65.30
2017-05-16T06:25:02.219Z,65.49
2017-05-16T06:26:03.652Z,64.63
2017-05-16T06:27:05.092Z,63.60
2017-05-16T06:28:06.524Z,63.79
2017-05-16T06:29:07.953Z,65.59
2017-05-16T06:30:09.398Z,63.86
2017-05-16T06:31:10.840Z,65.05
2017-05-16T06:32:12.682Z,65.53
2017-05-16T06:33:14.119Z,65.62
2017-05-16T06:34:15.548Z,63.89
2017-05-16T06:35:16.984Z,64.09
2017-05-16T06:36:18.422Z,64.72
2017-05-16T06:37:19.859Z,65.30
2017-05-16T06:38:21.290Z,65.14
2017-05-16T06:39:22.761Z,64.56
2017-05-16T06:40:24.196Z,65.14
2017-05-16T06:41:25.639Z,64.56
2017-05-16T06:42:27.065Z,64.85
2017-05-16T06:43:29.773Z,65.72
2017-05-16T06:44:31.219Z,64.76
2017-05-16T06:45:32.653Z,65.33
2017-05-16T06:46:34.725Z,64.85
2017-05-16T06:47:36.158Z,66.00
2017-05-16T06:48:37.595Z,64.95
2017-05-16T06:49:39.038Z,65.33
2017-05-16T06:50:40.471Z,63.99
2017-05-16T06:51:41.930Z,63.64
2017-05-16T06:52:43.345Z,63.89
2017-05-16T06:53:44.775Z,63.12
2017-05-16T06:54:46.212Z,63.22
2017-05-16T06:55:47.647Z,61.71
2017-05-16T06:56:49.087Z,61.43
2017-05-16T06:57:51.459Z,61.78
2017-05-16T06:58:52.892Z,62.19
2017-05-16T06:59:54.325Z,65.17
2017-05-16T07:00:55.752Z,62.19
2017-05-16T07:01:57.197Z,59.41
2017-05-16T07:02:58.632Z,59.82
2017-05-16T07:04:00.074Z,59.53
2017-05-16T07:05:01.513Z,58.86
2017-05-16T07:06:02.956Z,62.19
2017-05-16T07:07:04.960Z,62.61
2017-05-16T07:08:06.395Z,60.37
2017-05-16T07:09:07.827Z,60.69
2017-05-16T07:10:09.265Z,61.74
2017-05-16T07:11:10.709Z,61.26
2017-05-16T07:12:12.146Z,60.97
2017-05-16T07:13:13.591Z,60.49
2017-05-16T07:14:15.025Z,60.21
2017-05-16T07:15:16.467Z,58.86
2017-05-16T07:16:17.926Z,58.95
2017-05-16T07:17:19.373Z,58.70
2017-05-16T07:18:20.806Z,60.24
2017-05-16T07:19:22.242Z,58.89
2017-05-16T07:20:23.695Z,59.37
2017-05-16T07:21:25.132Z,58.70
2017-05-16T07:22:26.583Z,59.27
2017-05-16T07:23:28.012Z,59.78
2017-05-16T07:24:29.449Z,60.27
2017-05-16T07:25:30.893Z,59.97
2017-05-16T07:26:32.328Z,59.78
2017-05-16T07:27:33.758Z,59.78
2017-05-16T07:28:35.196Z,60.17
2017-05-16T07:29:36.636Z,58.92
2017-05-16T07:30:38.076Z,59.88
2017-05-16T07:31:39.515Z,60.27
2017-05-16T07:32:40.952Z,60.84
2017-05-16T07:33:42.397Z,58.63
2017-05-16T07:34:43.831Z,60.10
2017-05-16T07:35:45.269Z,60.58
2017-05-16T07:36:46.699Z,60.87
2017-05-16T07:37:48.146Z,60.39
2017-05-16T07:38:49.582Z,60.39
2017-05-16T07:39:51.027Z,59.43
2017-05-16T07:40:52.478Z,59.62
2017-05-16T07:41:53.917Z,60.49
2017-05-16T07:42:55.356Z,57.98
2017-05-16T07:43:56.796Z,59.43
2017-05-16T07:44:58.240Z,59.36
2017-05-16T07:45:59.673Z,60.42
2017-05-16T07:47:01.111Z,60.39
2017-05-16T07:48:02.553Z,58.75
2017-05-16T07:49:03.992Z,58.85
2017-05-16T07:50:05.434Z,58.78
2017-05-16T07:51:06.870Z,59.84
2017-05-16T07:52:08.316Z,58.11
2017-05-16T07:53:09.760Z,58.97
2017-05-16T07:54:11.196Z,56.95
2017-05-16T07:55:12.630Z,58.37
2017-05-16T07:56:14.063Z,59.33
2017-05-16T07:57:15.503Z,58.49
2017-05-16T07:58:16.938Z,56.47
2017-05-16T07:59:18.375Z,57.79
2017-05-16T08:00:19.817Z,57.89
2017-05-16T08:01:21.256Z,56.37
2017-05-16T08:02:22.694Z,57.14
2017-05-16T08:03:24.131Z,57.34
2017-05-16T08:04:25.565Z,58.97
2017-05-16T08:05:27.007Z,59.27
2017-05-16T08:06:28.462Z,60.61
2017-05-16T08:07:29.888Z,59.65
2017-05-16T08:08:31.323Z,57.72
2017-05-16T08:09:32.766Z,55.99
2017-05-16T08:10:34.264Z,59.55
2017-05-16T08:11:35.646Z,58.91
2017-05-16T08:12:37.087Z,59.17
2017-05-16T08:13:38.524Z,56.40
2017-05-16T08:14:39.966Z,55.44
2017-05-16T08:15:41.401Z,55.54
2017-05-16T08:16:42.874Z,55.56
2017-05-16T08:17:44.312Z,55.66
2017-05-16T08:18:45.758Z,54.47
2017-05-16T08:19:47.197Z,54.47
2017-05-16T08:20:48.643Z,56.14
2017-05-16T08:21:50.087Z,56.04
2017-05-16T08:22:51.531Z,56.52
2017-05-16T08:23:52.971Z,57.01
2017-05-16T08:24:54.404Z,55.36
2017-05-16T08:25:55.846Z,55.40
2017-05-16T08:26:57.290Z,58.84
2017-05-16T08:27:58.723Z,56.74
2017-05-16T08:29:00.168Z,56.26
2017-05-16T08:30:01.609Z,55.10
2017-05-16T08:31:03.046Z,56.36
2017-05-16T08:32:04.483Z,55.10
2017-05-16T08:33:05.926Z,54.14
2017-05-16T08:34:07.364Z,54.24
2017-05-16T08:35:08.805Z,53.08
2017-05-16T08:36:10.243Z,54.62
2017-05-16T08:37:11.690Z,54.75
2017-05-16T08:38:13.132Z,54.94
2017-05-16T08:39:14.570Z,56.29
2017-05-16T08:40:16.018Z,55.71
2017-05-16T08:41:17.455Z,51.56
2017-05-16T08:42:18.900Z,52.81
2017-05-16T08:43:21.196Z,53.27
2017-05-16T08:44:22.627Z,52.14
2017-05-16T08:45:24.069Z,54.27
2017-05-16T08:46:25.534Z,55.33
2017-05-16T08:47:26.978Z,55.52
2017-05-16T08:48:28.414Z,53.78
2017-05-16T08:49:29.883Z,51.56
2017-05-16T08:50:31.299Z,52.72
2017-05-16T08:51:32.735Z,53.49
2017-05-16T08:52:34.697Z,53.20
2017-05-16T08:53:36.140Z,54.17
2017-05-16T08:54:37.577Z,53.69
2017-05-16T08:55:39.007Z,55.16
2017-05-16T08:56:40.458Z,52.81
2017-05-16T08:57:41.894Z,53.20
2017-05-16T08:58:43.337Z,53.59
2017-05-16T08:59:44.774Z,53.59
2017-05-16T09:00:46.216Z,56.32
2017-05-16T09:01:47.662Z,54.77
2017-05-16T09:02:49.098Z,55.67
2017-05-16T09:03:50.535Z,55.77
2017-05-16T09:04:51.971Z,54.13
2017-05-16T09:05:54.336Z,53.61
2017-05-16T09:06:55.777Z,53.74
2017-05-16T09:07:57.220Z,54.61
2017-05-16T09:08:58.667Z,56.32
2017-05-16T09:10:00.116Z,53.35
2017-05-16T09:11:01.557Z,51.61
2017-05-16T09:12:02.996Z,53.35
2017-05-16T09:13:04.443Z,54.41
2017-05-16T09:14:05.922Z,54.32
2017-05-16T09:15:07.351Z,55.29
2017-05-16T09:16:08.792Z,53.35
2017-05-16T09:17:11.725Z,54.03
2017-05-16T09:18:13.165Z,55.21
2017-05-16T09:19:14.607Z,55.79
2017-05-16T09:20:16.572Z,55.79
2017-05-16T09:21:18.016Z,53.79
2017-05-16T09:22:19.452Z,53.96
2017-05-16T09:23:20.892Z,51.64
2017-05-16T09:24:22.331Z,51.23
2017-05-16T09:25:23.775Z,50.28
2017-05-16T09:26:25.220Z,51.54
2017-05-16T09:27:26.652Z,53.28
2017-05-16T09:28:28.090Z,53.28
2017-05-16T09:29:29.528Z,54.53
2017-05-16T09:30:30.965Z,54.93
2017-05-16T09:31:32.414Z,54.63
2017-05-16T09:32:33.846Z,54.53
2017-05-16T09:33:35.284Z,53.67
2017-05-16T09:34:36.719Z,50.55
2017-05-16T09:35:38.166Z,52.02
2017-05-16T09:36:39.600Z,53.86
2017-05-16T09:37:41.047Z,52.87
2017-05-16T09:38:42.479Z,51.71
2017-05-16T09:39:43.930Z,54.51
2017-05-16T09:40:45.375Z,55.96
2017-05-16T09:41:46.824Z,52.77
2017-05-16T09:42:48.399Z,53.83
2017-05-16T09:43:49.839Z,50.55
2017-05-16T09:44:51.275Z,51.03
2017-05-16T09:45:52.718Z,52.41
2017-05-16T09:46:54.165Z,51.06
2017-05-16T09:47:55.604Z,51.25
2017-05-16T09:48:57.046Z,50.57
2017-05-16T09:49:58.479Z,53.47
2017-05-16T09:50:59.916Z,52.41
2017-05-16T09:52:01.357Z,53.47
2017-05-16T09:53:02.793Z,52.61
2017-05-16T09:54:04.237Z,51.83
2017-05-16T09:55:05.680Z,51.13
2017-05-16T09:56:07.115Z,52.22
2017-05-16T09:57:08.557Z,54.13
2017-05-16T09:58:09.996Z,55.38
2017-05-16T09:59:11.438Z,51.93
2017-05-16T10:00:12.881Z,52.31
2017-05-16T10:01:14.317Z,52.31
2017-05-16T10:02:15.780Z,52.80
2017-05-16T10:03:17.221Z,52.00
2017-05-16T10:04:18.671Z,52.02
2017-05-16T10:05:20.105Z,53.89
2017-05-16T10:06:21.551Z,52.63
2017-05-16T10:07:22.984Z,51.56
2017-05-16T10:08:24.424Z,54.27
2017-05-16T10:09:25.867Z,52.34
2017-05-16T10:10:27.330Z,51.08
2017-05-16T10:11:28.776Z,53.47
2017-05-16T10:12:30.209Z,51.73
2017-05-16T10:13:31.646Z,54.08
2017-05-16T10:14:33.083Z,51.78
2017-05-16T10:15:34.522Z,53.79
2017-05-16T10:16:35.971Z,53.63
2017-05-16T10:17:37.407Z,51.98
2017-05-16T10:18:38.849Z,51.88
2017-05-16T10:19:40.287Z,52.17
2017-05-16T10:20:41.739Z,55.27
2017-05-16T10:21:43.175Z,53.43
2017-05-16T10:22:44.622Z,49.85
2017-05-16T10:23:46.071Z,51.32
2017-05-16T10:24:47.513Z,49.39
2017-05-16T10:25:48.949Z,48.88
2017-05-16T10:26:50.394Z,49.85
2017-05-16T10:27:51.837Z,50.45
2017-05-16T10:28:53.275Z,51.32
2017-05-16T10:29:54.721Z,51.93
2017-05-16T10:30:56.156Z,51.96
2017-05-16T10:31:57.606Z,48.95
2017-05-16T10:32:59.050Z,49.51
2017-05-16T10:34:00.506Z,48.52
2017-05-16T10:35:01.952Z,47.84
2017-05-16T10:36:42.884Z,48.52
2017-05-16T10:37:44.316Z,47.64
2017-05-16T10:38:45.761Z,51.16
2017-05-16T10:39:47.195Z,48.27
2017-05-16T10:40:48.631Z,47.98
2017-05-16T10:41:50.075Z,50.53
2017-05-16T10:42:51.520Z,48.42
2017-05-16T10:43:52.961Z,46.77
2017-05-16T10:44:55.306Z,45.95
2017-05-16T10:45:56.742Z,46.72
2017-05-16T10:46:58.180Z,47.30
2017-05-16T10:47:59.624Z,47.79
2017-05-16T10:49:01.081Z,46.89
2017-05-16T10:50:02.514Z,46.99
2017-05-16T10:51:03.952Z,48.52
2017-05-16T10:52:05.392Z,48.93
2017-05-16T10:53:06.835Z,48.44
2017-05-16T10:54:08.281Z,47.86
2017-05-16T10:55:09.715Z,46.22
2017-05-16T10:56:11.153Z,45.75
2017-05-16T10:57:12.595Z,45.56
2017-05-16T10:58:14.747Z,47.11
2017-05-16T10:59:16.186Z,48.10
2017-05-16T11:00:17.622Z,45.97
2017-05-16T11:01:19.062Z,46.75
2017-05-16T11:02:20.509Z,45.02
2017-05-16T11:03:21.946Z,43.66
2017-05-16T11:04:23.408Z,45.02
2017-05-16T11:05:24.846Z,43.37
2017-05-16T11:06:26.298Z,44.46
2017-05-16T11:07:27.750Z,42.13
2017-05-16T11:08:29.195Z,43.41
2017-05-16T11:09:30.637Z,43.78
2017-05-16T11:10:32.073Z,43.40
2017-05-16T11:11:33.534Z,43.01
2017-05-16T11:12:34.973Z,45.41
2017-05-16T11:13:36.408Z,45.61
2017-05-16T11:14:37.847Z,43.84
2017-05-16T11:15:39.296Z,42.77
2017-05-16T11:16:40.732Z,43.70
2017-05-16T11:17:42.172Z,46.51
2017-05-16T11:18:43.620Z,46.70
2017-05-16T11:19:45.064Z,46.89
2017-05-16T11:20:46.506Z,46.60
2017-05-16T11:21:47.949Z,46.92
2017-05-16T11:22:49.381Z,46.72
2017-05-16T11:23:50.827Z,44.71
2017-05-16T11:24:52.266Z,44.15
2017-05-16T11:25:53.708Z,43.47
2017-05-16T11:26:55.152Z,43.88
2017-05-16T11:27:56.591Z,42.71
2017-05-16T11:28:58.035Z,43.61
2017-05-16T11:29:59.476Z,41.26
2017-05-16T11:31:00.917Z,39.51
2017-05-16T11:32:02.356Z,42.03
2017-05-16T11:33:03.804Z,42.50
2017-05-16T11:34:05.246Z,42.40
2017-05-16T11:35:06.693Z,43.74
2017-05-16T11:36:08.131Z,46.07
2017-05-16T11:37:09.574Z,46.94
2017-05-16T11:38:11.011Z,47.23
2017-05-16T11:39:12.457Z,44.83
2017-05-16T11:40:13.897Z,45.89
2017-05-16T11:41:15.333Z,46.55
2017-05-16T11:42:16.777Z,47.76
2017-05-16T11:43:18.221Z,45.24
2017-05-16T11:44:19.670Z,43.24
2017-05-16T11:45:21.105Z,42.35
2017-05-16T11:46:22.548Z,40.67
2017-05-16T11:47:23.996Z,40.87
2017-05-16T11:48:25.440Z,44.83
2017-05-16T11:49:26.881Z,43.49
2017-05-16T11:50:28.331Z,43.68
2017-05-16T11:51:29.772Z,43.71
2017-05-16T11:52:31.213Z,46.35
2017-05-16T11:53:32.649Z,43.55
2017-05-16T11:54:34.096Z,43.16
2017-05-16T11:55:35.529Z,42.02
2017-05-16T11:56:36.984Z,43.29
2017-05-16T11:57:38.426Z,43.87
2017-05-16T11:58:39.886Z,40.64
2017-05-16T11:59:41.331Z,38.60
2017-05-16T12:00:42.771Z,39.59
2017-05-16T12:01:44.218Z,40.83
2017-05-16T12:02:45.653Z,41.80
2017-05-16T12:03:47.093Z,39.10
2017-05-16T12:04:48.539Z,39.65
2017-05-16T12:05:50.025Z,38.19
2017-05-16T12:06:51.437Z,38.77
2017-05-16T12:07:52.884Z,40.81
2017-05-16T12:08:54.326Z,38.50
2017-05-16T12:09:55.767Z,39.18
2017-05-16T12:10:57.208Z,41.90
2017-05-16T12:11:58.653Z,41.78
2017-05-16T12:13:00.094Z,39.75
2017-05-16T12:14:01.525Z,40.81
2017-05-16T12:15:02.976Z,39.86
2017-05-16T12:16:04.411Z,38.81
2017-05-16T12:17:05.851Z,41.06
2017-05-16T12:18:07.297Z,43.62
2017-05-16T12:19:08.736Z,39.24
2017-05-16T12:20:10.181Z,37.87
2017-05-16T12:21:11.614Z,37.10
2017-05-16T12:22:13.055Z,37.68
2017-05-16T12:23:15.946Z,36.80
2017-05-16T12:24:16.390Z,38.56
2017-05-16T12:25:17.842Z,37.10
2017-05-16T12:26:19.278Z,37.26
2017-05-16T12:27:20.726Z,38.15
2017-05-16T12:28:22.167Z,39.49
2017-05-16T12:29:23.612Z,39.59
2017-05-16T12:30:25.056Z,38.73
2017-05-16T12:31:26.494Z,37.45
2017-05-16T12:32:27.930Z,37.85
2017-05-16T12:33:29.375Z,37.77
2017-05-16T12:34:30.819Z,38.17
2017-05-16T12:35:32.262Z,38.56
2017-05-16T12:36:33.693Z,37.93
2017-05-16T12:37:35.133Z,39.10
2017-05-16T12:38:36.574Z,38.32
2017-05-16T12:39:38.017Z,38.71
2017-05-16T12:40:39.456Z,39.76
2017-05-16T12:41:40.894Z,38.89
2017-05-16T12:42:42.334Z,38.98
2017-05-16T12:43:43.777Z,38.05
2017-05-16T12:44:45.217Z,38.52
2017-05-16T12:45:47.201Z,39.31
2017-05-16T12:46:48.655Z,37.18
2017-05-16T12:47:50.106Z,37.95
2017-05-16T12:48:52.402Z,37.66
2017-05-16T12:49:53.847Z,37.46
2017-05-16T12:50:55.289Z,37.85
2017-05-16T12:51:56.736Z,36.61
2017-05-16T12:52:58.176Z,35.15
2017-05-16T12:53:59.617Z,35.15
2017-05-16T12:55:01.069Z,36.90
2017-05-16T12:56:02.535Z,37.97
2017-05-16T12:57:03.976Z,39.94
2017-05-16T12:58:05.422Z,39.36
2017-05-16T12:59:06.852Z,37.19
2017-05-16T13:00:08.297Z,37.70
2017-05-16T13:01:09.736Z,35.34
2017-05-16T13:02:11.181Z,37.39
2017-05-16T13:03:12.621Z,36.51
2017-05-16T13:04:14.070Z,37.39
2017-05-16T13:05:15.522Z,38.15
2017-05-16T13:06:17.945Z,37.46
2017-05-16T13:07:19.394Z,37.74
2017-05-16T13:08:20.839Z,37.43
2017-05-16T13:09:22.297Z,37.18
2017-05-16T13:10:23.746Z,37.95
2017-05-16T13:11:25.197Z,36.22
2017-05-16T13:12:27.424Z,35.75